Time;durP1;ratioP1;P1;durP2;ratioP2;P2;SDS_P1;SDS_P2;PMS_P1;PMS_P2;Temp;Humidity;BMP_temperature;BMP_pressure;BME280_temperature;BME280_humidity;BME280_pressure;Samples;Min_cycle;Max_cycle;Signal;HPM_P1;HPM_P2
2022/08/26 00:01:24;;;;;;;30.48;14.25;;;;;;;20.39;92.01;101398.03;5022060;28;20084;-67
2022/08/26 00:03:49;;;;;;;26.63;13.63;;;;;;;20.36;91.80;101392.16;5021192;28;20029;-67
2022/08/26 00:06:15;;;;;;;28.17;13.30;;;;;;;20.34;91.63;101395.25;5020465;28;20504;-67
2022/08/26 00:08:40;;;;;;;25.77;11.60;;;;;;;20.30;91.77;101396.94;5021757;28;20427;-67
2022/08/26 00:11:07;;;;;;;25.48;11.98;;;;;;;20.29;92.17;101402.81;5021915;28;20423;-66
2022/08/26 00:13:33;;;;;;;22.13;11.45;;;;;;;20.21;91.98;101399.44;5021301;28;20484;-67
2022/08/26 00:15:59;;;;;;;23.00;12.18;;;;;;;20.28;91.93;101406.72;5021307;28;20251;-67
2022/08/26 00:18:24;;;;;;;22.10;10.73;;;;;;;20.20;92.03;101406.16;5021836;28;20037;-67
2022/08/26 00:20:50;;;;;;;20.80;10.27;;;;;;;20.18;92.10;101399.19;5021041;28;20033;-67
2022/08/26 00:23:16;;;;;;;21.02;11.30;;;;;;;20.16;91.97;101412.56;5020124;28;20041;-67
2022/08/26 00:25:42;;;;;;;23.52;11.07;;;;;;;20.13;92.36;101405.63;5021692;28;20522;-67
2022/08/26 00:28:08;;;;;;;24.95;10.77;;;;;;;20.09;92.24;101412.88;5021297;28;20038;-67
2022/08/26 00:30:33;;;;;;;27.45;10.20;;;;;;;20.08;92.59;101402.00;5021264;28;20049;-67
2022/08/26 00:33:00;;;;;;;23.27;10.45;;;;;;;20.03;92.47;101408.41;5021150;28;20041;-67
2022/08/26 00:35:26;;;;;;;24.52;10.30;;;;;;;20.01;92.70;101413.44;5021329;28;20020;-66
2022/08/26 00:37:52;;;;;;;22.55;10.25;;;;;;;20.01;92.71;101409.81;5020897;28;20025;-67
2022/08/26 00:40:22;;;;;;;20.20;10.38;;;;;;;19.94;92.81;101413.72;5016457;28;20021;-67
2022/08/26 00:42:48;;;;;;;25.25;9.50;;;;;;;19.94;93.06;101407.31;5004333;28;20412;-67
2022/08/26 00:45:14;;;;;;;24.40;9.70;;;;;;;19.92;92.95;101409.53;5021126;28;20028;-67
2022/08/26 00:47:45;;;;;;;20.38;9.90;;;;;;;19.91;93.55;101410.66;5021202;28;20014;-66
2022/08/26 00:50:15;;;;;;;23.33;9.63;;;;;;;19.87;93.00;101412.31;5020349;28;20033;-66
2022/08/26 00:52:41;;;;;;;19.90;9.60;;;;;;;19.88;93.27;101403.69;5021085;28;20278;-67
2022/08/26 00:55:20;;;;;;;19.55;9.55;;;;;;;19.87;93.80;101412.31;5021060;28;20858;-67
2022/08/26 00:57:48;;;;;;;24.05;9.38;;;;;;;19.91;93.46;101419.00;5010645;28;20315;-67
2022/08/26 01:00:19;;;;;;;22.05;9.95;;;;;;;19.90;93.37;101422.91;5001668;28;20322;-67
2022/08/26 01:02:47;;;;;;;23.75;9.70;;;;;;;19.90;93.73;101425.72;5001564;28;20030;-66
2022/08/26 01:05:15;;;;;;;25.42;9.93;;;;;;;19.85;93.62;101423.75;5000131;28;20105;-67
2022/08/26 01:07:41;;;;;;;27.15;10.65;;;;;;;19.84;93.69;101415.69;5001862;28;20026;-67
2022/08/26 01:10:10;;;;;;;22.98;9.65;;;;;;;19.83;93.88;101411.22;5001471;28;20085;-66
2022/08/26 01:12:44;;;;;;;22.50;9.40;;;;;;;19.85;93.60;101408.97;5001350;28;20056;-67
2022/08/26 01:15:14;;;;;;;23.08;9.48;;;;;;;19.81;93.91;101408.69;5001431;28;20069;-67
2022/08/26 01:17:40;;;;;;;23.08;9.35;;;;;;;19.85;93.86;101420.97;5001052;28;20026;-67
2022/08/26 01:20:17;;;;;;;21.23;9.38;;;;;;;19.87;93.84;101423.47;5003480;28;20017;-67
2022/08/26 01:22:51;;;;;;;24.13;9.52;;;;;;;19.91;93.87;101419.00;5005358;28;20056;-66
2022/08/26 01:25:18;;;;;;;25.45;9.10;;;;;;;19.88;93.92;101417.63;5005561;28;20072;-67
2022/08/26 01:27:43;;;;;;;22.77;10.55;;;;;;;19.93;93.84;101422.38;5004985;28;20252;-67
2022/08/26 01:30:10;;;;;;;25.77;9.63;;;;;;;19.98;93.36;101419.59;5004614;28;20025;-67
2022/08/26 01:32:36;;;;;;;23.45;9.30;;;;;;;20.01;93.65;101412.59;5004901;28;20034;-66
2022/08/26 01:35:01;;;;;;;24.10;9.43;;;;;;;20.02;93.55;101412.34;4986343;28;20096;-67
2022/08/26 01:37:33;;;;;;;23.10;9.00;;;;;;;20.04;93.31;101412.88;5005119;28;20022;-67
2022/08/26 01:39:59;;;;;;;19.58;8.38;;;;;;;20.02;93.41;101411.47;5003977;28;20113;-67
2022/08/26 01:42:26;;;;;;;20.13;8.98;;;;;;;20.02;92.73;101415.13;5005249;28;20101;-67
2022/08/26 01:44:58;;;;;;;23.63;9.82;;;;;;;20.04;93.33;101412.88;5004611;28;20022;-67
2022/08/26 01:47:28;;;;;;;23.30;9.63;;;;;;;20.02;93.39;101417.03;5004529;28;20033;-67
2022/08/26 01:49:55;;;;;;;22.75;9.65;;;;;;;20.05;92.97;101417.34;5003865;28;20025;-67
2022/08/26 01:52:23;;;;;;;29.03;9.67;;;;;;;20.05;93.30;101422.91;5004400;28;20045;-67
2022/08/26 01:54:50;;;;;;;21.25;9.82;;;;;;;20.04;93.10;101410.09;5004925;28;20096;-67
2022/08/26 01:57:18;;;;;;;29.40;10.70;;;;;;;20.04;92.97;101414.84;5004620;28;20029;-67
2022/08/26 01:59:44;;;;;;;24.25;10.50;;;;;;;20.05;93.12;101411.75;5004995;28;20373;-67
2022/08/26 02:02:09;;;;;;;25.35;10.25;;;;;;;20.08;93.14;101415.94;5003731;28;20026;-67
2022/08/26 02:04:58;;;;;;;23.33;11.15;;;;;;;20.09;92.77;101412.03;5003708;28;20026;-67
2022/08/26 02:07:24;;;;;;;28.27;10.02;;;;;;;20.04;93.06;101412.03;5020708;28;20519;-67
2022/08/26 02:09:49;;;;;;;23.73;9.85;;;;;;;20.05;92.96;101403.38;5024729;28;20488;-67
2022/08/26 02:12:18;;;;;;;25.00;10.27;;;;;;;20.03;93.16;101410.38;5023860;28;20030;-67
2022/08/26 02:14:49;;;;;;;23.85;9.80;;;;;;;20.03;93.28;101405.63;5024011;28;20052;-68
2022/08/26 02:17:16;;;;;;;24.88;10.38;;;;;;;20.03;92.89;101415.94;5023805;28;20017;-67
2022/08/26 02:19:46;;;;;;;26.35;10.98;;;;;;;20.01;93.00;101413.44;5023110;28;20045;-67
2022/08/26 02:22:15;;;;;;;25.50;10.75;;;;;;;20.00;93.17;101416.50;5022213;28;20029;-67
2022/08/26 02:24:50;;;;;;;26.33;10.15;;;;;;;19.99;93.10;101424.03;5023634;28;20034;-67
2022/08/26 02:27:20;;;;;;;24.83;10.15;;;;;;;19.98;93.34;101424.31;5023920;28;20082;-67
2022/08/26 02:29:50;;;;;;;21.98;10.07;;;;;;;19.96;93.30;101419.84;5023531;28;20075;-67
2022/08/26 02:32:16;;;;;;;18.20;9.88;;;;;;;19.96;92.94;101419.00;5024230;28;20080;-67
2022/08/26 02:34:41;;;;;;;21.67;10.63;;;;;;;19.92;92.88;101427.13;5022866;28;20029;-67
2022/08/26 02:37:09;;;;;;;23.77;10.15;;;;;;;19.91;93.23;101428.22;5022768;28;20142;-67
2022/08/26 02:39:36;;;;;;;24.13;9.40;;;;;;;19.91;93.00;101441.31;5007021;28;20030;-66
2022/08/26 02:42:04;;;;;;;23.13;11.35;;;;;;;19.88;93.21;101441.88;5003095;28;20018;-66
2022/08/26 02:44:30;;;;;;;25.70;10.68;;;;;;;19.87;93.19;101438.28;5003566;28;20030;-67
2022/08/26 02:46:55;;;;;;;22.15;10.30;;;;;;;19.88;93.19;101442.72;5003111;28;20278;-67
2022/08/26 02:49:22;;;;;;;25.23;10.30;;;;;;;19.88;93.12;101439.09;5003442;28;20030;-66
2022/08/26 02:51:48;;;;;;;26.63;10.43;;;;;;;19.88;92.70;101442.72;5003203;28;20030;-67
2022/08/26 02:54:14;;;;;;;24.83;9.55;;;;;;;19.85;93.25;101440.47;5003685;28;20348;-67
2022/08/26 02:56:39;;;;;;;22.40;8.80;;;;;;;19.83;92.97;101439.94;5008093;28;20473;-66
2022/08/26 02:59:05;;;;;;;19.65;8.85;;;;;;;19.80;93.02;101437.69;5022720;28;20021;-66
2022/08/26 03:01:32;;;;;;;25.35;9.02;;;;;;;19.75;93.20;101426.53;5023646;28;20473;-67
2022/08/26 03:03:59;;;;;;;26.37;9.47;;;;;;;19.70;93.40;101421.78;5021954;28;20437;-66
2022/08/26 03:06:24;;;;;;;19.70;8.57;;;;;;;19.67;93.52;101430.72;5022818;28;20284;-67
2022/08/26 03:08:50;;;;;;;18.00;8.10;;;;;;;19.65;93.79;101434.88;5023596;28;20110;-67
2022/08/26 03:11:17;;;;;;;18.52;9.02;;;;;;;19.62;94.17;101446.63;5023500;28;20013;-67
2022/08/26 03:13:43;;;;;;;18.85;8.13;;;;;;;19.62;94.39;101432.69;5021868;28;20029;-67
2022/08/26 03:16:08;;;;;;;19.88;8.40;;;;;;;19.64;94.26;101442.41;5022318;28;20026;-67
2022/08/26 03:18:34;;;;;;;25.65;8.38;;;;;;;19.61;94.01;101431.81;5023065;28;20404;-67
2022/08/26 03:21:11;;;;;;;18.80;7.50;;;;;;;19.63;94.18;101432.38;5021710;28;20021;-67
2022/08/26 03:23:38;;;;;;;18.60;7.82;;;;;;;19.60;94.10;101435.72;5022706;28;20029;-67
2022/08/26 03:26:05;;;;;;;23.92;7.78;;;;;;;19.59;94.27;101430.41;5022636;28;20085;-67
2022/08/26 03:28:30;;;;;;;19.85;7.20;;;;;;;19.60;94.27;101435.72;5022252;28;20029;-66
2022/08/26 03:30:56;;;;;;;22.80;7.20;;;;;;;19.64;93.92;101430.44;5021914;28;20028;-67
2022/08/26 03:33:22;;;;;;;25.67;8.65;;;;;;;19.65;94.13;101444.09;5022126;28;20078;-66
2022/08/26 03:35:47;;;;;;;21.63;6.63;;;;;;;19.66;93.44;101440.19;5022469;28;20025;-67
2022/08/26 03:38:13;;;;;;;20.52;8.32;;;;;;;19.68;93.59;101440.75;5021648;28;20030;-66
2022/08/26 03:40:41;;;;;;;18.83;7.57;;;;;;;19.65;93.53;101443.25;5021686;28;20365;-67
2022/08/26 03:43:08;;;;;;;20.77;7.95;;;;;;;19.66;93.70;101444.91;5022062;28;20034;-67
2022/08/26 03:45:35;;;;;;;20.85;8.23;;;;;;;19.65;93.68;101444.09;5021798;28;20108;-67
2022/08/26 03:48:01;;;;;;;24.57;8.30;;;;;;;19.64;93.15;101442.41;5019990;28;20064;-67
2022/08/26 03:50:27;;;;;;;21.45;7.18;;;;;;;19.65;93.68;101446.03;5001467;28;20030;-67
2022/08/26 03:52:53;;;;;;;23.52;7.30;;;;;;;19.62;93.38;101441.88;5002123;28;20026;-67
2022/08/26 03:55:22;;;;;;;17.80;6.80;;;;;;;19.57;93.80;101441.84;5002736;28;20113;-67
2022/08/26 03:57:47;;;;;;;18.40;6.28;;;;;;;19.62;94.08;101438.25;5003214;28;20021;-66
2022/08/26 04:00:15;;;;;;;21.58;7.55;;;;;;;19.61;93.73;101436.56;5001578;28;20137;-67
2022/08/26 04:02:44;;;;;;;18.20;6.70;;;;;;;19.66;93.45;101439.34;5002376;28;20034;-67
2022/08/26 04:05:12;;;;;;;17.10;6.53;;;;;;;19.67;93.45;101441.88;5007978;28;20191;-67
2022/08/26 04:07:38;;;;;;;21.95;6.50;;;;;;;19.67;93.00;101433.50;5021953;28;20025;-67
2022/08/26 04:10:04;;;;;;;22.20;6.35;;;;;;;19.65;93.13;101438.50;5021427;28;20458;-67
2022/08/26 04:12:29;;;;;;;16.17;5.75;;;;;;;19.66;93.20;101442.97;5022290;28;20033;-67
2022/08/26 04:14:54;;;;;;;20.65;6.72;;;;;;;19.66;92.95;101436.56;5020963;28;20532;-67
2022/08/26 04:17:20;;;;;;;15.63;5.47;;;;;;;19.68;93.09;101439.94;5022256;28;20033;-67
2022/08/26 04:19:45;;;;;;;15.88;5.40;;;;;;;19.66;93.15;101437.41;5021033;28;20029;-67
2022/08/26 04:22:11;;;;;;;12.05;5.13;;;;;;;19.65;92.91;101432.94;5020354;28;20029;-67
2022/08/26 04:24:38;;;;;;;20.25;5.40;;;;;;;19.68;92.73;101432.41;5021479;28;20044;-67
2022/08/26 04:27:04;;;;;;;15.48;5.40;;;;;;;19.66;92.69;101434.59;5021230;28;20025;-66
2022/08/26 04:29:30;;;;;;;18.73;4.88;;;;;;;19.69;92.76;101434.06;5021743;28;20037;-67
2022/08/26 04:31:56;;;;;;;11.70;4.63;;;;;;;19.69;92.77;101438.81;5020709;28;20415;-67
2022/08/26 04:34:23;;;;;;;13.07;4.65;;;;;;;19.68;92.84;101437.13;5020623;28;20032;-67
2022/08/26 04:36:50;;;;;;;16.50;4.80;;;;;;;19.66;92.43;101440.19;5022065;28;20045;-67
2022/08/26 04:39:16;;;;;;;13.82;4.38;;;;;;;19.67;92.59;101441.88;5019892;28;20025;-67
2022/08/26 04:41:46;;;;;;;18.92;4.72;;;;;;;19.65;92.69;101441.31;5021657;28;20025;-67
2022/08/26 04:44:12;;;;;;;14.63;4.30;;;;;;;19.66;92.37;101442.97;5021444;28;20159;-68
2022/08/26 04:46:37;;;;;;;20.95;4.90;;;;;;;19.65;92.33;101444.09;5019640;28;20572;-67
2022/08/26 04:49:07;;;;;;;12.68;5.55;;;;;;;19.66;92.41;101442.97;5002476;28;20022;-67
2022/08/26 04:51:33;;;;;;;11.00;4.18;;;;;;;19.69;92.27;101439.63;5021387;28;20312;-67
2022/08/26 04:53:58;;;;;;;12.65;4.00;;;;;;;19.70;92.08;101448.84;5020492;28;20022;-67
2022/08/26 04:56:25;;;;;;;14.75;5.07;;;;;;;19.68;91.66;101449.13;5016813;28;20373;-67
2022/08/26 04:58:51;;;;;;;20.08;5.10;;;;;;;19.72;91.89;101454.97;5001164;28;20034;-67
2022/08/26 05:01:17;;;;;;;17.27;4.43;;;;;;;19.70;91.58;101452.44;5001620;28;20076;-68
2022/08/26 05:03:42;;;;;;;19.08;4.47;;;;;;;19.73;91.85;101458.59;5000466;28;20942;-67
2022/08/26 05:06:08;;;;;;;20.45;4.90;;;;;;;19.74;91.89;101460.28;5001443;28;20050;-67
2022/08/26 05:08:33;;;;;;;19.23;4.32;;;;;;;19.76;91.78;101460.81;5001751;28;20076;-67
2022/08/26 05:11:03;;;;;;;19.27;4.72;;;;;;;19.78;92.23;101458.59;5000632;28;20072;-68
2022/08/26 05:13:28;;;;;;;14.57;4.20;;;;;;;19.75;91.78;101459.16;4983765;28;20025;-67
2022/08/26 05:15:53;;;;;;;34.30;5.60;;;;;;;19.75;92.33;101459.16;5001353;28;20025;-67
2022/08/26 05:18:23;;;;;;;16.70;3.78;;;;;;;19.73;92.23;101450.25;5001571;28;20287;-67
2022/08/26 05:20:52;;;;;;;8.85;2.90;;;;;;;19.73;92.16;101455.81;5000737;28;20310;-67
2022/08/26 05:23:18;;;;;;;11.50;2.88;;;;;;;19.70;92.16;101454.41;5001603;28;20428;-67
2022/08/26 05:25:46;;;;;;;9.57;2.80;;;;;;;19.66;92.34;101448.53;5001441;28;20054;-67
2022/08/26 05:28:14;;;;;;;8.18;3.38;;;;;;;19.71;92.74;101453.28;5000986;28;20056;-67
2022/08/26 05:30:39;;;;;;;;;;;;;;;19.81;90.67;101458.88;5001925;28;20033;-68
2022/08/26 05:33:05;;;;;;;9.80;3.22;;;;;;;19.75;91.81;101461.94;5015770;28;19917;-67
2022/08/26 05:35:32;;;;;;;12.43;3.55;;;;;;;19.74;91.93;101466.69;5020356;28;20036;-67
2022/08/26 05:37:59;;;;;;;12.47;3.07;;;;;;;19.77;92.22;101465.28;5020676;28;20028;-67
2022/08/26 05:40:26;;;;;;;12.57;3.17;;;;;;;19.75;91.94;101462.78;5020607;28;20026;-67
2022/08/26 05:42:51;;;;;;;7.45;2.58;;;;;;;19.78;92.41;101464.19;5020841;28;20021;-67
2022/08/26 05:45:17;;;;;;;9.75;3.00;;;;;;;19.79;92.44;101461.09;5021082;28;20033;-67
2022/08/26 05:47:42;;;;;;;8.77;2.50;;;;;;;19.80;92.37;101464.72;5020557;28;20518;-67
2022/08/26 05:50:08;;;;;;;8.60;2.90;;;;;;;19.83;92.45;101475.34;5014868;28;20029;-67
2022/08/26 05:52:33;;;;;;;12.38;4.00;;;;;;;19.84;91.91;101463.91;5020721;28;20511;-67
2022/08/26 05:54:59;;;;;;;7.33;2.50;;;;;;;19.86;92.47;101475.59;5020661;28;20021;-67
2022/08/26 05:57:24;;;;;;;9.25;2.47;;;;;;;19.85;91.82;101475.88;5019997;28;20412;-67
2022/08/26 05:59:50;;;;;;;10.32;2.85;;;;;;;19.91;92.03;101475.59;5021223;28;20053;-67
2022/08/26 06:02:15;;;;;;;11.40;2.72;;;;;;;19.90;91.25;101490.66;5020874;28;20022;-67
2022/08/26 06:04:42;;;;;;;6.82;2.20;;;;;;;19.93;91.69;101490.13;5020426;28;20468;-67
2022/08/26 06:07:07;;;;;;;9.93;2.33;;;;;;;19.95;91.49;101487.88;5018703;28;20439;-67
2022/08/26 06:09:35;;;;;;;8.45;2.67;;;;;;;20.01;91.36;101490.66;5024125;28;20030;-67
2022/08/26 06:12:01;;;;;;;8.15;2.22;;;;;;;20.04;91.28;101495.69;5023684;28;20427;-67
2022/08/26 06:14:26;;;;;;;9.27;2.30;;;;;;;20.09;91.19;101502.09;5024208;28;20074;-67
2022/08/26 06:16:51;;;;;;;9.27;2.33;;;;;;;20.12;90.91;101496.00;5024359;28;20026;-67
2022/08/26 06:19:18;;;;;;;6.25;2.00;;;;;;;20.15;90.52;101506.56;5023461;28;20087;-67
2022/08/26 06:21:46;;;;;;;8.02;2.08;;;;;;;20.14;89.61;101498.50;5024297;28;20017;-67
2022/08/26 06:26:59;;;;;;;10.10;2.33;;;;;;;20.25;90.09;101504.91;5003844;28;20037;-67
2022/08/26 06:29:26;;;;;;;13.15;2.20;;;;;;;20.29;89.60;101508.81;5004039;28;20037;-68
2022/08/26 06:31:52;;;;;;;7.15;2.10;;;;;;;20.33;88.67;101510.75;5004189;28;20037;-67
2022/08/26 06:34:18;;;;;;;5.72;2.00;;;;;;;20.32;88.19;101513.81;5002971;28;20071;-67
2022/08/26 06:36:44;;;;;;;6.50;2.25;;;;;;;20.38;88.54;101505.19;5003775;28;20025;-67
2022/08/26 06:39:12;;;;;;;6.85;1.75;;;;;;;20.39;88.24;101509.63;5010730;28;20025;-67
2022/08/26 06:41:38;;;;;;;5.60;1.80;;;;;;;20.45;88.04;101519.66;5022843;28;20640;-68
2022/08/26 06:44:05;;;;;;;6.40;2.10;;;;;;;20.42;87.90;101530.53;5023333;28;20029;-68
2022/08/26 06:46:31;;;;;;;8.18;2.20;;;;;;;20.41;87.39;101531.66;5023355;28;20036;-67
2022/08/26 06:48:57;;;;;;;5.78;1.80;;;;;;;20.45;87.54;101524.41;5022169;28;20025;-67
2022/08/26 06:51:26;;;;;;;6.82;1.85;;;;;;;20.45;87.88;101525.25;5023419;28;20028;-67
2022/08/26 06:53:53;;;;;;;7.13;1.73;;;;;;;20.50;87.33;101530.03;5023525;28;20041;-66
2022/08/26 06:56:22;;;;;;;4.47;2.00;;;;;;;20.48;87.12;101529.47;5022588;28;20427;-67
2022/08/26 06:58:48;;;;;;;8.65;2.53;;;;;;;20.44;86.76;101536.69;5020306;28;20128;-67
2022/08/26 07:01:14;;;;;;;6.78;1.88;;;;;;;20.39;87.20;101528.34;5023135;28;20241;-67
2022/08/26 07:03:40;;;;;;;7.25;2.05;;;;;;;20.38;86.80;101535.03;5022437;28;20824;-67
2022/08/26 07:06:05;;;;;;;6.40;1.92;;;;;;;20.45;87.04;101536.41;5022315;28;20186;-67
2022/08/26 07:08:31;;;;;;;8.27;1.77;;;;;;;20.49;86.20;101527.53;5023386;28;20160;-67
2022/08/26 07:10:57;;;;;;;5.57;1.90;;;;;;;20.55;86.33;101532.81;5022479;28;20441;-67
2022/08/26 07:13:22;;;;;;;6.95;1.90;;;;;;;20.65;85.98;101530.00;5022601;28;20393;-67
2022/08/26 07:15:48;;;;;;;8.48;1.70;;;;;;;20.71;85.91;101528.88;5023430;28;20022;-67
2022/08/26 07:18:13;;;;;;;6.57;1.63;;;;;;;20.71;85.28;101528.88;5022422;28;20455;-67
2022/08/26 07:20:39;;;;;;;6.57;1.85;;;;;;;20.71;85.11;101531.66;5022458;28;20483;-67
2022/08/26 07:23:09;;;;;;;10.65;1.98;;;;;;;20.73;84.64;101535.03;5022167;28;20032;-68
2022/08/26 07:25:39;;;;;;;6.30;1.90;;;;;;;20.84;84.71;101538.63;5023294;28;20073;-67
2022/08/26 07:28:04;;;;;;;7.05;1.45;;;;;;;20.84;83.92;101533.03;5021725;28;20025;-67
2022/08/26 07:30:30;;;;;;;8.63;1.67;;;;;;;20.89;83.80;101535.00;5023086;28;20037;-69
2022/08/26 07:32:56;;;;;;;6.47;1.67;;;;;;;20.85;82.76;101536.66;5017271;28;20639;-68
2022/08/26 07:35:22;;;;;;;7.38;2.13;;;;;;;20.86;82.71;101535.53;5021656;28;20072;-67
2022/08/26 07:37:47;;;;;;;9.23;1.88;;;;;;;20.88;82.85;101539.75;5022620;28;20025;-68
2022/08/26 07:40:14;;;;;;;5.90;1.60;;;;;;;20.95;82.38;101537.47;5022090;28;20104;-68
2022/08/26 07:42:39;;;;;;;5.88;1.55;;;;;;;21.03;82.21;101538.00;5021960;28;20469;-68
2022/08/26 07:45:05;;;;;;;7.07;1.48;;;;;;;21.07;81.48;101545.53;5021791;28;20033;-68
2022/08/26 07:47:31;;;;;;;9.07;1.80;;;;;;;21.19;81.39;101545.22;5022490;28;20072;-69
2022/08/26 07:49:57;;;;;;;7.18;1.60;;;;;;;21.16;80.91;101552.22;5013788;28;20014;-68
2022/08/26 07:52:25;;;;;;;8.05;1.65;;;;;;;21.22;81.39;101548.25;5002693;28;20030;-68
2022/08/26 07:54:51;;;;;;;7.38;1.27;;;;;;;21.30;81.36;101558.06;5002172;28;20022;-67
2022/08/26 07:57:16;;;;;;;8.77;1.40;;;;;;;21.41;81.22;101554.09;5002927;28;20440;-68
2022/08/26 07:59:41;;;;;;;9.80;1.67;;;;;;;21.60;80.59;101556.25;5002068;28;20361;-67
2022/08/26 08:02:07;;;;;;;7.27;1.47;;;;;;;21.57;78.96;101551.22;5002030;28;20417;-67
2022/08/26 08:04:32;;;;;;;6.63;1.60;;;;;;;21.43;78.63;101562.19;5001792;28;20284;-67
2022/08/26 08:06:57;;;;;;;6.00;1.58;;;;;;;21.40;78.57;101551.59;5001324;28;20050;-67
2022/08/26 08:09:23;;;;;;;9.48;1.52;;;;;;;21.42;78.24;101549.34;5002524;28;20053;-67
2022/08/26 08:11:48;;;;;;;5.38;1.35;;;;;;;21.52;78.80;101551.25;5002618;28;20037;-67
2022/08/26 08:14:14;;;;;;;8.50;1.52;;;;;;;21.50;77.37;101548.75;5001188;28;20048;-67
2022/08/26 08:16:40;;;;;;;4.97;1.30;;;;;;;21.44;77.87;101552.66;5002433;28;20270;-68
2022/08/26 08:19:05;;;;;;;8.35;1.80;;;;;;;21.43;78.08;101551.84;5000612;28;20112;-67
2022/08/26 08:21:30;;;;;;;8.05;1.50;;;;;;;21.45;78.20;101565.53;5002259;28;20025;-68
2022/08/26 08:23:56;;;;;;;3.88;1.00;;;;;;;21.45;76.81;101559.97;5001509;28;20030;-67
2022/08/26 08:26:23;;;;;;;6.88;1.30;;;;;;;21.46;77.43;101556.03;5009758;28;20029;-68
2022/08/26 08:28:51;;;;;;;8.30;1.50;;;;;;;21.55;77.60;101557.13;5002082;28;20358;-67
2022/08/26 08:31:26;;;;;;;4.20;1.10;;;;;;;21.59;77.29;101560.97;5001456;28;20026;-67
2022/08/26 08:33:51;;;;;;;8.30;1.45;;;;;;;21.61;77.01;101564.34;5000818;28;20014;-67
2022/08/26 08:36:17;;;;;;;5.57;1.20;;;;;;;21.67;77.08;101567.94;5002183;28;20084;-67
2022/08/26 08:38:43;;;;;;;4.57;1.42;;;;;;;21.60;76.74;101567.44;5001744;28;20413;-67
2022/08/26 08:41:30;;;;;;;7.88;2.10;;;;;;;21.58;76.56;101578.03;5001312;28;20032;-68
2022/08/26 08:43:59;;;;;;;5.85;1.20;;;;;;;21.54;76.07;101574.16;5000742;28;20760;-67
2022/08/26 08:46:24;;;;;;;6.05;1.23;;;;;;;21.44;75.89;101572.22;5021070;28;20103;-67
2022/08/26 08:48:58;;;;;;;9.98;1.40;;;;;;;21.50;76.57;101563.56;5021191;28;20960;-67
2022/08/26 08:51:38;;;;;;;6.40;1.50;;;;;;;21.55;76.51;101573.06;5021834;28;20503;-68
2022/08/26 08:54:05;;;;;;;5.20;1.50;;;;;;;21.57;76.50;101574.41;5021129;28;20034;-66
2022/08/26 08:56:31;;;;;;;5.80;1.30;;;;;;;21.55;75.98;101565.50;5021075;28;20113;-67
2022/08/26 08:59:05;;;;;;;6.85;1.50;;;;;;;21.60;75.69;101568.28;5020961;28;20112;-67
2022/08/26 09:01:44;;;;;;;8.25;1.48;;;;;;;21.69;76.37;101574.91;5016469;28;20036;-67
2022/08/26 09:04:29;;;;;;;8.82;1.80;;;;;;;21.81;75.64;101568.16;5020386;28;20120;-67
2022/08/26 09:06:57;;;;;;;6.70;1.40;;;;;;;21.71;74.63;101567.09;5020444;28;20050;-67
2022/08/26 09:09:37;;;;;;;6.35;1.60;;;;;;;21.73;75.85;101573.22;5021119;28;20067;-66
2022/08/26 09:12:03;;;;;;;8.18;1.27;;;;;;;21.72;75.92;101577.13;5020909;28;20036;-66
2022/08/26 09:14:30;;;;;;;4.00;1.20;;;;;;;21.67;76.55;101579.13;5021039;28;20080;-67
2022/08/26 09:17:32;;;;;;;5.75;1.38;;;;;;;21.71;76.42;101581.06;5019309;28;20319;-67
2022/08/26 09:20:19;;;;;;;6.90;1.20;;;;;;;21.73;76.32;101576.00;5020165;28;20040;-67
2022/08/26 09:22:44;;;;;;;4.43;1.03;;;;;;;21.73;74.89;101578.81;5020632;28;20695;-67
2022/08/26 09:25:12;;;;;;;6.72;1.58;;;;;;;21.75;75.29;101582.16;5020964;28;20044;-66
2022/08/26 09:27:47;;;;;;;5.90;1.50;;;;;;;21.76;75.53;101577.41;5020881;28;20484;-67
2022/08/26 09:30:20;;;;;;;6.65;1.10;;;;;;;21.81;75.98;101579.34;5020324;28;20108;-66
2022/08/26 09:33:04;;;;;;;10.07;1.60;;;;;;;21.75;75.72;101582.16;5020797;28;20566;-67
2022/08/26 09:35:38;;;;;;;6.30;1.50;;;;;;;21.71;75.60;101580.22;5020931;28;20404;-67
2022/08/26 09:38:40;;;;;;;7.53;1.52;;;;;;;21.61;75.01;101581.13;5019971;28;20017;-67
2022/08/26 09:41:19;;;;;;;5.60;1.65;;;;;;;21.47;76.13;101591.25;4962495;28;20066;-67
2022/08/26 09:44:30;;;;;;;7.38;1.80;;;;;;;21.47;75.90;101585.66;5017061;28;20056;-67
2022/08/26 09:47:03;;;;;;;5.55;1.30;;;;;;;21.46;75.60;101592.38;5020652;28;20048;-67
2022/08/26 09:49:37;;;;;;;8.18;1.63;;;;;;;21.44;75.82;101591.78;5024012;28;20029;-67
2022/08/26 09:52:09;;;;;;;5.93;1.10;;;;;;;21.38;75.62;101592.94;5024387;28;20029;-66
2022/08/26 09:54:35;;;;;;;4.47;1.15;;;;;;;21.42;75.60;101591.25;5023417;28;20018;-66
2022/08/26 09:57:15;;;;;;;5.97;1.20;;;;;;;21.47;75.47;101594.03;5024057;28;20423;-67
2022/08/26 09:59:40;;;;;;;6.50;1.40;;;;;;;21.48;74.95;101584.53;5024049;28;20025;-67
2022/08/26 10:02:33;;;;;;;5.18;1.10;;;;;;;21.45;75.91;101587.91;5024505;28;20029;-67
2022/08/26 10:05:03;;;;;;;9.07;1.50;;;;;;;21.39;75.60;101583.44;5021695;28;20032;-66
2022/08/26 10:07:53;;;;;;;6.43;1.20;;;;;;;21.35;75.45;101593.53;5024068;28;20515;-67
2022/08/26 10:10:38;;;;;;;7.95;1.73;;;;;;;21.37;75.42;101585.69;5024149;28;20028;-67
2022/08/26 10:13:22;;;;;;;6.90;1.40;;;;;;;21.41;75.14;101596.00;5023254;28;20021;-67
2022/08/26 10:16:13;;;;;;;8.02;1.38;;;;;;;21.46;75.90;101589.56;5024480;28;20117;-67
2022/08/26 10:18:49;;;;;;;8.30;1.42;;;;;;;21.43;75.75;101598.50;5022856;28;20022;-67
2022/08/26 10:21:24;;;;;;;8.02;1.85;;;;;;;21.37;75.32;101600.50;5023599;28;20108;-67
2022/08/26 10:23:52;;;;;;;8.07;1.48;;;;;;;21.37;75.66;101602.47;5023729;28;20080;-67
2022/08/26 10:26:56;;;;;;;8.82;1.35;;;;;;;21.50;75.52;101607.44;5024401;28;20037;-67
2022/08/26 10:29:28;;;;;;;5.93;1.20;;;;;;;21.51;75.22;101606.31;5021906;28;20038;-67
2022/08/26 10:31:59;;;;;;;6.95;1.17;;;;;;;21.52;75.05;101595.97;5003635;28;20396;-67
2022/08/26 10:34:24;;;;;;;5.72;1.23;;;;;;;21.55;74.50;101587.03;5003399;28;20377;-67
2022/08/26 10:36:58;;;;;;;7.90;1.35;;;;;;;21.62;75.11;101593.97;5004317;28;20030;-67
2022/08/26 10:39:42;;;;;;;9.02;1.20;;;;;;;21.61;74.83;101599.84;5003587;28;20026;-67
2022/08/26 10:42:16;;;;;;;8.18;1.30;;;;;;;21.64;74.58;101600.09;5003645;28;20036;-67
2022/08/26 10:44:43;;;;;;;6.10;1.48;;;;;;;21.64;74.58;101600.09;5004008;28;20076;-67
2022/08/26 10:47:16;;;;;;;8.32;1.40;;;;;;;21.69;74.95;101597.28;5003317;28;20055;-67
2022/08/26 10:49:44;;;;;;;7.95;1.40;;;;;;;21.65;74.54;101592.56;5003220;28;20037;-67
2022/08/26 10:52:24;;;;;;;;;;;;;;;21.82;73.97;101597.78;5003391;28;20034;-67
2022/08/26 10:54:58;;;;;;;7.63;1.17;;;;;;;21.64;73.69;101597.28;5004363;28;19913;-67
2022/08/26 10:57:32;;;;;;;7.13;1.48;;;;;;;21.71;75.05;101589.44;5003343;28;20290;-67
2022/08/26 11:03:30;;;;;;;7.85;1.23;;;;;;;21.81;73.51;101590.53;4982010;28;20112;-67
2022/08/26 11:06:17;;;;;;;8.57;1.38;;;;;;;21.84;74.03;101587.13;5012987;28;20494;-67
2022/08/26 11:08:55;;;;;;;4.45;1.17;;;;;;;21.87;73.56;101592.16;5023417;28;20032;-67
2022/08/26 11:11:39;;;;;;;7.28;1.27;;;;;;;21.87;73.77;101595.78;5023154;28;20104;-66
2022/08/26 11:14:20;;;;;;;7.78;1.42;;;;;;;21.84;73.53;101601.13;5022641;28;20033;-67
2022/08/26 11:16:46;;;;;;;7.57;1.38;;;;;;;21.79;72.80;101595.56;5022960;28;20059;-67
2022/08/26 11:19:40;;;;;;;9.30;1.60;;;;;;;21.81;73.42;101599.75;5022152;28;20025;-67
2022/08/26 11:22:08;;;;;;;6.10;1.27;;;;;;;21.70;72.91;101586.94;5021473;28;20033;-67
2022/08/26 11:24:53;;;;;;;7.10;1.20;;;;;;;21.64;74.58;101604.84;5003088;28;20026;-67
2022/08/26 11:27:21;;;;;;;7.18;1.52;;;;;;;21.60;74.22;101598.19;5003029;28;20037;-67
2022/08/26 11:30:00;;;;;;;10.73;1.67;;;;;;;21.52;73.63;101587.59;4985930;28;20473;-67
2022/08/26 11:32:47;;;;;;;8.02;1.15;;;;;;;21.55;73.27;101592.63;5002826;28;20485;-67
2022/08/26 11:35:24;;;;;;;5.88;1.05;;;;;;;21.53;73.77;101592.06;5002325;28;20014;-67